Time;durP1;ratioP1;P1;durP2;ratioP2;P2;SDS_P1;SDS_P2;PMS_P1;PMS_P2;Temp;Humidity;BMP_temperature;BMP_pressure;BME280_temperature;BME280_humidity;BME280_pressure;Samples;Min_cycle;Max_cycle;Signal;HPM_P1;HPM_P2
2022/01/17 00:01:42;;;;;;;14.13;10.23;;;;;;;2.51;100.00;99549.31;5096010;28;20220;-79
2022/01/17 00:04:10;;;;;;;11.07;8.67;;;;;;;2.58;100.00;99566.59;5095019;28;20575;-79
2022/01/17 00:06:37;;;;;;;15.10;9.63;;;;;;;2.83;100.00;99596.72;5095258;28;20214;-78
2022/01/17 00:09:03;;;;;;;18.77;12.63;;;;;;;2.77;100.00;99609.84;5095501;28;20699;-79
2022/01/17 00:11:30;;;;;;;17.07;11.97;;;;;;;2.74;100.00;99604.66;5095836;28;20211;-79
2022/01/17 00:13:57;;;;;;;17.43;12.27;;;;;;;2.67;100.00;99599.53;5095838;28;20215;-79
2022/01/17 00:16:33;;;;;;;16.10;11.57;;;;;;;2.60;100.00;99606.63;5095550;28;20294;-79
2022/01/17 00:19:30;;;;;;;16.27;11.37;;;;;;;2.63;100.00;99609.16;5095450;28;20217;-79
2022/01/17 00:21:55;;;;;;;16.17;11.00;;;;;;;2.72;100.00;99616.88;5093376;28;20211;-79
2022/01/17 00:24:21;;;;;;;14.70;10.03;;;;;;;2.79;100.00;99610.69;5095653;28;20222;-79
2022/01/17 00:26:48;;;;;;;14.37;9.73;;;;;;;2.86;100.00;99614.91;5095290;28;20210;-79
2022/01/17 00:29:15;;;;;;;14.00;9.50;;;;;;;2.91;100.00;99613.09;5095213;28;20288;-79
2022/01/17 00:31:41;;;;;;;13.77;9.30;;;;;;;2.88;100.00;99615.75;5093550;28;20206;-79
2022/01/17 00:34:09;;;;;;;11.23;8.90;;;;;;;2.87;100.00;99611.41;5095576;28;20242;-79
2022/01/17 00:36:35;;;;;;;10.47;8.47;;;;;;;2.91;100.00;99615.72;5095110;28;20226;-79
2022/01/17 00:39:02;;;;;;;11.03;9.07;;;;;;;2.90;100.00;99621.84;5095379;28;20230;-79
2022/01/17 00:41:28;;;;;;;12.83;9.43;;;;;;;2.89;100.00;99625.31;5095396;28;20211;-79
2022/01/17 00:43:55;;;;;;;16.40;10.90;;;;;;;2.82;100.00;99628.91;5095344;28;20214;-79
2022/01/17 00:46:22;;;;;;;15.00;11.13;;;;;;;2.87;100.00;99626.25;5095455;28;20577;-79
2022/01/17 00:48:48;;;;;;;16.87;11.57;;;;;;;2.91;100.00;99633.13;5095235;28;20219;-79
2022/01/17 00:51:16;;;;;;;21.17;14.00;;;;;;;2.91;100.00;99628.78;5095048;28;20235;-79
2022/01/17 00:53:42;;;;;;;19.63;14.13;;;;;;;2.88;100.00;99630.56;5095115;28;20215;-79
2022/01/17 00:56:09;;;;;;;20.60;14.07;;;;;;;2.78;100.00;99637.69;5094188;28;20233;-79
2022/01/17 00:58:35;;;;;;;22.97;14.63;;;;;;;2.81;100.00;99637.63;5094337;28;20215;-79
2022/01/17 01:01:02;;;;;;;24.20;15.73;;;;;;;2.68;100.00;99628.25;5094683;28;20211;-79
2022/01/17 01:03:28;;;;;;;24.90;15.73;;;;;;;2.57;100.00;99635.34;5094930;28;20222;-79
2022/01/17 01:05:55;;;;;;;22.67;15.30;;;;;;;2.57;100.00;99626.69;5094706;28;20681;-79
2022/01/17 01:08:23;;;;;;;24.67;15.50;;;;;;;2.54;100.00;99630.19;5094685;28;20214;-79
2022/01/17 01:10:49;;;;;;;24.30;16.40;;;;;;;2.56;100.00;99638.00;5094714;28;20231;-79
2022/01/17 01:13:21;;;;;;;24.57;15.47;;;;;;;2.51;100.00;99645.03;5094405;28;20218;-79
2022/01/17 01:16:08;;;;;;;27.00;16.27;;;;;;;2.48;100.00;99650.28;5094356;28;20692;-79
2022/01/17 01:18:49;;;;;;;27.03;16.80;;;;;;;2.42;100.00;99653.84;5089033;28;20214;-79
2022/01/17 01:21:44;;;;;;;29.60;17.30;;;;;;;2.42;100.00;99642.53;5086801;28;20215;-80
2022/01/17 01:29:46;;;;;;;28.93;17.27;;;;;;;2.46;100.00;99652.91;5094126;28;20695;-79
2022/01/17 01:32:17;;;;;;;24.47;15.77;;;;;;;2.46;100.00;99665.94;5094297;28;20219;-79
2022/01/17 01:34:48;;;;;;;26.60;17.10;;;;;;;2.45;100.00;99658.16;5094103;28;20271;-80
2022/01/17 01:37:15;;;;;;;29.37;17.93;;;;;;;2.51;100.00;99650.25;5094199;28;20210;-79
2022/01/17 01:39:43;;;;;;;27.77;17.30;;;;;;;2.50;100.00;99651.13;5093944;28;20626;-79
2022/01/17 01:42:13;;;;;;;26.27;17.93;;;;;;;2.45;100.00;99645.94;5093816;28;20218;-79
2022/01/17 01:44:39;;;;;;;27.23;18.00;;;;;;;2.50;100.00;99645.91;5093651;28;20246;-80
2022/01/17 01:47:06;;;;;;;25.40;16.97;;;;;;;2.57;100.00;99637.97;5093780;28;20223;-79
2022/01/17 01:49:33;;;;;;;26.03;16.93;;;;;;;2.55;100.00;99646.69;5092257;28;20223;-79
2022/01/17 01:51:59;;;;;;;27.53;17.70;;;;;;;2.62;100.00;99643.13;5093738;28;20700;-79
2022/01/17 01:54:26;;;;;;;25.90;15.50;;;;;;;2.63;100.00;99632.66;5094038;28;20214;-80
2022/01/17 01:56:54;;;;;;;25.30;16.73;;;;;;;2.64;100.00;99629.16;5093939;28;20213;-79
2022/01/17 01:59:22;;;;;;;23.10;15.57;;;;;;;2.66;100.00;99624.81;5086599;28;20240;-79
2022/01/17 02:01:49;;;;;;;24.43;15.67;;;;;;;2.59;100.00;99635.34;5086557;28;20217;-80
2022/01/17 02:04:16;;;;;;;20.40;14.57;;;;;;;2.67;100.00;99623.91;5085522;28;20206;-79
2022/01/17 02:06:43;;;;;;;24.00;14.70;;;;;;;2.72;100.00;99622.09;5083072;28;20207;-79
2022/01/17 02:09:10;;;;;;;25.57;15.53;;;;;;;2.70;100.00;99613.41;5084788;28;20673;-79
2022/01/17 02:11:38;;;;;;;25.07;15.27;;;;;;;2.67;100.00;99609.97;5092503;28;20231;-79
2022/01/17 02:14:06;;;;;;;23.30;15.13;;;;;;;2.68;100.00;99615.19;5093641;28;20225;-79
2022/01/17 02:16:33;;;;;;;24.43;16.13;;;;;;;2.74;100.00;99620.31;5091732;28;20222;-79
2022/01/17 02:19:00;;;;;;;22.93;15.30;;;;;;;2.64;100.00;99618.72;5093415;28;20589;-79
2022/01/17 02:21:34;;;;;;;22.27;15.50;;;;;;;2.68;100.00;99623.03;5093486;28;20241;-79
2022/01/17 02:24:02;;;;;;;22.43;14.63;;;;;;;2.79;100.00;99621.13;5093222;28;20210;-79
2022/01/17 02:26:30;;;;;;;25.63;14.93;;;;;;;2.80;100.00;99604.56;5093607;28;20230;-79
2022/01/17 02:28:58;;;;;;;26.17;16.20;;;;;;;2.88;100.00;99613.13;5093401;28;20214;-79
2022/01/17 02:31:26;;;;;;;23.73;14.70;;;;;;;2.94;100.00;99617.44;5093074;28;20242;-79
2022/01/17 02:33:53;;;;;;;19.37;13.97;;;;;;;2.97;100.00;99618.25;5087165;28;20225;-79
2022/01/17 02:36:20;;;;;;;23.80;15.00;;;;;;;3.05;100.00;99636.41;5092981;28;20691;-79
2022/01/17 02:38:48;;;;;;;20.63;13.73;;;;;;;3.10;100.00;99640.66;5092924;28;20215;-79
2022/01/17 02:41:14;;;;;;;20.73;14.27;;;;;;;3.12;100.00;99633.66;5091530;28;20214;-79
2022/01/17 02:43:42;;;;;;;21.00;13.70;;;;;;;3.17;100.00;99634.44;5093175;28;20216;-79
2022/01/17 02:46:26;;;;;;;24.83;14.90;;;;;;;3.20;100.00;99631.81;5092625;28;20243;-79
2022/01/17 02:48:54;;;;;;;22.60;14.97;;;;;;;3.19;100.00;99632.66;5091688;28;20233;-79
2022/01/17 02:51:20;;;;;;;23.03;15.70;;;;;;;3.22;100.00;99640.47;5092927;28;20260;-79
2022/01/17 02:53:48;;;;;;;21.23;14.40;;;;;;;3.21;100.00;99645.72;5093076;28;20222;-79
2022/01/17 02:56:14;;;;;;;18.93;14.00;;;;;;;3.19;100.00;99650.94;5093030;28;20223;-79
2022/01/17 02:58:42;;;;;;;21.93;15.40;;;;;;;3.12;100.00;99643.25;5092793;28;20214;-79
2022/01/17 03:01:10;;;;;;;25.27;15.80;;;;;;;3.09;100.00;99643.28;5093140;28;20210;-79
2022/01/17 03:03:37;;;;;;;23.43;15.97;;;;;;;2.98;100.00;99658.25;5092913;28;20214;-79
2022/01/17 03:06:04;;;;;;;22.87;15.73;;;;;;;2.96;100.00;99655.69;5093092;28;20214;-79
2022/01/17 03:08:34;;;;;;;25.83;16.43;;;;;;;3.02;100.00;99650.38;5091090;28;20681;-79
2022/01/17 03:11:05;;;;;;;25.70;16.47;;;;;;;3.00;100.00;99661.72;5092876;28;20253;-79
2022/01/17 03:13:33;;;;;;;24.57;16.23;;;;;;;2.95;100.00;99656.56;5092892;28;20211;-79
2022/01/17 03:16:02;;;;;;;25.20;16.50;;;;;;;2.96;100.00;99653.06;5093154;28;20618;-79
2022/01/17 03:18:30;;;;;;;25.63;16.53;;;;;;;2.92;100.00;99648.78;5092954;28;20305;-79
2022/01/17 03:20:57;;;;;;;24.27;16.67;;;;;;;2.92;100.00;99647.91;5092834;28;20564;-79
2022/01/17 03:23:24;;;;;;;25.20;16.03;;;;;;;2.93;100.00;99649.66;5092979;28;20224;-79
2022/01/17 03:25:51;;;;;;;24.07;16.30;;;;;;;2.93;100.00;99632.22;5092710;28;20577;-79
2022/01/17 03:28:19;;;;;;;27.00;17.17;;;;;;;2.93;100.00;99627.00;5094117;28;20215;-79
2022/01/17 03:30:46;;;;;;;24.63;16.93;;;;;;;2.93;100.00;99621.78;5096973;28;20230;-79
2022/01/17 03:33:15;;;;;;;27.93;17.43;;;;;;;2.93;100.00;99627.00;5094748;28;20222;-79
2022/01/17 03:35:42;;;;;;;26.40;16.30;;;;;;;2.90;100.00;99623.56;5096237;28;20749;-79
2022/01/17 03:38:10;;;;;;;30.93;18.30;;;;;;;2.98;100.00;99629.53;5096514;28;20218;-80
2022/01/17 03:40:37;;;;;;;29.23;18.97;;;;;;;2.91;100.00;99631.38;5096370;28;20668;-79
2022/01/17 03:43:04;;;;;;;27.73;17.80;;;;;;;2.96;100.00;99646.97;5096638;28;20603;-79
2022/01/17 03:45:33;;;;;;;26.63;17.83;;;;;;;2.93;100.00;99647.03;5096134;28;20242;-79
2022/01/17 03:48:00;;;;;;;26.60;17.67;;;;;;;2.85;100.00;99644.53;5092160;28;20215;-79
2022/01/17 03:50:28;;;;;;;25.30;16.73;;;;;;;2.91;100.00;99651.41;5096203;28;20308;-79
2022/01/17 03:52:55;;;;;;;27.23;17.53;;;;;;;2.89;100.00;99648.81;5096351;28;20211;-79
2022/01/17 03:55:23;;;;;;;25.40;16.07;;;;;;;2.89;100.00;99653.19;5096145;28;20221;-79
2022/01/17 03:57:50;;;;;;;23.97;17.00;;;;;;;2.93;100.00;99647.88;5096251;28;20684;-79
2022/01/17 04:00:20;;;;;;;25.37;17.07;;;;;;;2.92;100.00;99647.91;5094534;28;20215;-79
2022/01/17 04:02:49;;;;;;;29.53;18.80;;;;;;;2.93;100.00;99653.09;5096253;28;20217;-79
2022/01/17 04:05:16;;;;;;;25.73;17.70;;;;;;;2.92;100.00;99661.84;5096065;28;20210;-79
2022/01/17 04:07:43;;;;;;;26.20;17.23;;;;;;;2.94;100.00;99665.28;5096211;28;20210;-79
2022/01/17 04:10:10;;;;;;;24.87;16.60;;;;;;;2.95;100.00;99663.53;5096314;28;20214;-79
2022/01/17 04:12:36;;;;;;;27.17;17.07;;;;;;;2.88;100.00;99647.09;5090217;28;20676;-79
2022/01/17 04:15:04;;;;;;;24.67;15.77;;;;;;;2.89;100.00;99647.97;5095765;28;20219;-80
2022/01/17 04:17:30;;;;;;;26.00;16.57;;;;;;;2.97;100.00;99653.91;5095670;28;20672;-79
2022/01/17 04:20:04;;;;;;;23.10;15.83;;;;;;;2.89;100.00;99653.19;5095760;28;20215;-79
2022/01/17 04:22:34;;;;;;;26.47;16.27;;;;;;;2.85;100.00;99652.38;5095831;28;20214;-79
2022/01/17 04:25:00;;;;;;;24.07;16.03;;;;;;;2.87;100.00;99641.91;5094123;28;20218;-79
2022/01/17 04:27:27;;;;;;;24.83;15.87;;;;;;;2.92;100.00;99630.50;5095828;28;20211;-79
2022/01/17 04:29:53;;;;;;;23.73;16.30;;;;;;;2.91;100.00;99628.78;5095595;28;20242;-79
2022/01/17 04:32:20;;;;;;;22.97;15.43;;;;;;;2.89;100.00;99625.31;5095357;28;20234;-79
2022/01/17 04:34:47;;;;;;;21.70;14.93;;;;;;;2.88;100.00;99623.59;5095307;28;20695;-79
2022/01/17 04:37:15;;;;;;;24.40;15.33;;;;;;;2.89;100.00;99640.97;5090408;28;20207;-79
2022/01/17 04:39:41;;;;;;;24.10;15.97;;;;;;;2.89;100.00;99653.19;5094850;28;20207;-79
2022/01/17 04:42:12;;;;;;;22.63;15.20;;;;;;;2.96;100.00;99652.19;5095400;28;20580;-79
2022/01/17 04:47:24;;;;;;;21.43;14.60;;;;;;;3.02;100.00;99647.75;5095031;28;20299;-79
2022/01/17 04:49:50;;;;;;;20.67;14.43;;;;;;;3.06;100.00;99644.19;5095040;28;20677;-79
2022/01/17 04:52:18;;;;;;;21.23;13.23;;;;;;;3.06;100.00;99648.56;5093581;28;20238;-79
2022/01/17 04:54:52;;;;;;;23.17;14.43;;;;;;;3.06;100.00;99648.56;5094725;28;20292;-80
2022/01/17 04:57:19;;;;;;;19.17;13.57;;;;;;;3.06;100.00;99646.81;5095133;28;20316;-79
2022/01/17 04:59:45;;;;;;;18.90;12.50;;;;;;;3.06;100.00;99654.66;5094895;28;20214;-79
2022/01/17 05:02:12;;;;;;;20.93;14.43;;;;;;;3.09;100.00;99654.63;5092659;28;20207;-79
2022/01/17 05:04:39;;;;;;;21.40;13.80;;;;;;;3.07;100.00;99666.81;5094614;28;20210;-79
2022/01/17 05:07:05;;;;;;;22.40;12.77;;;;;;;3.06;100.00;99662.47;5094903;28;20215;-79
2022/01/17 05:09:33;;;;;;;19.17;11.83;;;;;;;3.07;100.00;99666.81;5094917;28;20215;-79
2022/01/17 05:12:00;;;;;;;19.57;12.27;;;;;;;2.95;100.00;99661.78;5094507;28;20230;-79
2022/01/17 05:14:27;;;;;;;17.90;11.77;;;;;;;2.91;100.00;99654.88;5094805;28;20218;-79
2022/01/17 05:17:00;;;;;;;19.87;12.83;;;;;;;2.86;100.00;99656.69;5092700;28;20301;-79
2022/01/17 05:22:11;;;;;;;16.43;11.13;;;;;;;2.86;100.00;99658.44;5092195;28;20311;-79
2022/01/17 05:24:39;;;;;;;14.87;10.93;;;;;;;2.92;100.00;99661.84;5094500;28;20238;-79
2022/01/17 05:27:06;;;;;;;14.70;10.50;;;;;;;2.93;100.00;99665.31;5094592;28;20215;-79
2022/01/17 05:29:32;;;;;;;19.17;11.97;;;;;;;2.99;100.00;99654.78;5094504;28;20218;-79
2022/01/17 05:31:59;;;;;;;14.83;10.63;;;;;;;2.97;100.00;99654.81;5094421;28;20235;-79
2022/01/17 05:34:25;;;;;;;17.00;10.60;;;;;;;2.98;100.00;99645.19;5094062;28;20700;-79
2022/01/17 05:36:51;;;;;;;15.93;10.07;;;;;;;2.95;100.00;99643.50;5094185;28;20218;-79
2022/01/17 05:39:18;;;;;;;14.20;10.10;;;;;;;2.97;100.00;99631.28;5094528;28;20223;-79
2022/01/17 05:41:46;;;;;;;14.43;10.07;;;;;;;2.98;100.00;99642.59;5094303;28;20214;-79
2022/01/17 05:44:13;;;;;;;13.90;9.67;;;;;;;3.03;100.00;99643.38;5092699;28;20222;-79
2022/01/17 05:46:39;;;;;;;14.73;9.70;;;;;;;3.04;100.00;99643.38;5085334;28;20234;-79
2022/01/17 05:49:06;;;;;;;12.67;9.43;;;;;;;3.00;100.00;99654.72;5093787;28;20703;-79
2022/01/17 05:51:32;;;;;;;11.70;9.27;;;;;;;3.05;100.00;99646.84;5092834;28;20234;-79
2022/01/17 05:53:58;;;;;;;12.77;8.97;;;;;;;3.12;100.00;99651.94;5093877;28;20234;-79
2022/01/17 05:56:25;;;;;;;11.13;8.30;;;;;;;3.12;100.00;99645.88;5094063;28;20218;-79
2022/01/17 05:58:53;;;;;;;13.33;9.27;;;;;;;3.22;100.00;99637.84;5093714;28;20215;-79
2022/01/17 06:01:19;;;;;;;11.37;8.23;;;;;;;3.18;100.00;99641.38;5093860;28;20234;-79
2022/01/17 06:03:46;;;;;;;10.90;8.30;;;;;;;3.18;100.00;99654.44;5093578;28;20210;-79
2022/01/17 06:06:12;;;;;;;10.10;7.80;;;;;;;3.24;100.00;99645.69;5093705;28;20226;-79
2022/01/17 06:08:38;;;;;;;10.53;8.30;;;;;;;3.28;100.00;99653.44;5092098;28;20210;-79
2022/01/17 06:11:05;;;;;;;10.50;7.87;;;;;;;3.31;100.00;99660.34;5093548;28;20237;-79
2022/01/17 06:13:32;;;;;;;10.43;7.87;;;;;;;3.35;100.00;99655.06;5093547;28;20348;-79
2022/01/17 06:16:00;;;;;;;9.50;7.10;;;;;;;3.38;100.00;99662.84;5093759;28;20214;-79
2022/01/17 06:18:27;;;;;;;10.00;7.40;;;;;;;3.39;100.00;99659.34;5093173;28;20221;-79
2022/01/17 06:20:53;;;;;;;10.73;7.43;;;;;;;3.46;100.00;99671.44;5093255;28;20215;-79
2022/01/17 06:23:21;;;;;;;10.77;7.83;;;;;;;3.47;100.00;99667.91;5093247;28;20210;-79
2022/01/17 06:25:47;;;;;;;9.47;7.17;;;;;;;3.49;100.00;99671.34;5093424;28;20214;-79
2022/01/17 06:28:14;;;;;;;10.20;7.30;;;;;;;3.51;100.00;99674.81;5093084;28;20222;-79
2022/01/17 06:30:40;;;;;;;9.43;7.30;;;;;;;3.47;100.00;99667.91;5093456;28;20217;-79
2022/01/17 06:33:08;;;;;;;9.33;7.27;;;;;;;3.52;100.00;99668.72;5093304;28;20246;-79
2022/01/17 06:35:35;;;;;;;10.67;7.57;;;;;;;3.50;100.00;99686.19;5091906;28;20585;-79
2022/01/17 06:38:02;;;;;;;10.03;7.37;;;;;;;3.52;100.00;99687.00;5093421;28;20213;-79
2022/01/17 06:40:29;;;;;;;11.47;8.17;;;;;;;3.47;100.00;99686.22;5093102;28;20250;-79
2022/01/17 06:42:55;;;;;;;11.73;8.27;;;;;;;3.38;100.00;99699.44;5093236;28;20264;-79
2022/01/17 06:45:22;;;;;;;13.10;8.00;;;;;;;3.46;100.00;99708.00;5093016;28;20241;-79
2022/01/17 06:47:49;;;;;;;11.30;8.03;;;;;;;3.25;100.00;99721.41;5093247;28;20218;-79
2022/01/17 06:50:17;;;;;;;12.00;8.20;;;;;;;3.26;100.00;99722.28;5093086;28;20214;-79
2022/01/17 06:52:45;;;;;;;13.77;8.67;;;;;;;3.29;100.00;99712.63;5092792;28;20729;-79
2022/01/17 06:55:12;;;;;;;9.60;7.90;;;;;;;3.29;100.00;99704.78;5093274;28;20235;-79
2022/01/17 06:57:38;;;;;;;10.43;7.83;;;;;;;3.35;100.00;99698.59;5093168;28;20215;-79
2022/01/17 07:00:07;;;;;;;10.70;7.63;;;;;;;3.39;100.00;99703.78;5092989;28;20210;-79
2022/01/17 07:02:34;;;;;;;8.70;7.40;;;;;;;3.42;100.00;99715.94;5092987;28;20221;-79
2022/01/17 07:05:00;;;;;;;10.50;7.30;;;;;;;3.39;100.00;99721.19;5097230;28;20625;-79
2022/01/17 07:07:28;;;;;;;10.77;8.13;;;;;;;3.42;100.00;99722.00;5097100;28;20218;-79
2022/01/17 07:09:55;;;;;;;11.50;7.97;;;;;;;3.47;100.00;99725.41;5097688;28;20553;-79
2022/01/17 07:12:21;;;;;;;12.70;8.47;;;;;;;3.34;100.00;99734.34;5096665;28;20696;-79
2022/01/17 07:14:47;;;;;;;10.43;7.57;;;;;;;3.43;100.00;99734.19;5097065;28;20291;-79
2022/01/17 07:17:14;;;;;;;10.90;8.37;;;;;;;3.42;100.00;99739.47;5096996;28;20216;-79
2022/01/17 07:19:41;;;;;;;11.33;7.73;;;;;;;3.49;100.00;99744.53;5096989;28;20218;-79
2022/01/17 07:22:08;;;;;;;11.00;8.17;;;;;;;3.53;100.00;99743.63;5096563;28;20221;-79
2022/01/17 07:24:37;;;;;;;13.63;8.37;;;;;;;3.45;100.00;99747.25;5096539;28;20259;-78
2022/01/17 07:27:04;;;;;;;9.80;7.53;;;;;;;3.48;100.00;99753.28;5095300;28;20611;-79
2022/01/17 07:29:30;;;;;;;11.67;8.07;;;;;;;3.45;100.00;99769.03;5096612;28;20221;-79
2022/01/17 07:31:57;;;;;;;11.47;8.40;;;;;;;3.37;100.00;99765.63;5096444;28;20312;-79
2022/01/17 07:34:24;;;;;;;9.60;7.00;;;;;;;3.46;100.00;99765.50;5096420;28;20215;-79
2022/01/17 07:36:51;;;;;;;9.67;7.17;;;;;;;3.53;100.00;99745.34;5096439;28;20681;-79
2022/01/17 07:39:17;;;;;;;8.67;6.70;;;;;;;3.56;100.00;99751.41;5096819;28;20214;-78
2022/01/17 07:41:45;;;;;;;9.97;7.20;;;;;;;3.62;100.00;99750.44;5096411;28;20231;-79
2022/01/17 07:44:19;;;;;;;8.10;6.27;;;;;;;3.65;100.00;99753.00;5096444;28;20212;-79
2022/01/17 07:46:50;;;;;;;7.43;6.00;;;;;;;3.70;100.00;99754.69;5089187;28;20249;-79
2022/01/17 07:49:19;;;;;;;8.70;6.77;;;;;;;3.75;100.00;99762.44;5096170;28;20249;-79
2022/01/17 07:51:48;;;;;;;9.83;6.80;;;;;;;3.72;100.00;99763.34;5095540;28;20238;-80
2022/01/17 07:54:17;;;;;;;8.57;6.43;;;;;;;3.75;100.00;99773.78;5093447;28;20219;-79
2022/01/17 07:56:46;;;;;;;8.00;6.67;;;;;;;3.80;100.00;99785.00;5094893;28;20210;-79
2022/01/17 07:59:13;;;;;;;9.27;6.67;;;;;;;3.85;100.00;99780.56;5094927;28;20242;-79
2022/01/17 08:01:40;;;;;;;10.83;6.90;;;;;;;3.91;100.00;99779.63;5094827;28;20695;-79
2022/01/17 08:04:07;;;;;;;8.27;6.47;;;;;;;3.94;100.00;99772.56;5094984;28;20217;-79
2022/01/17 08:06:36;;;;;;;10.20;7.10;;;;;;;4.00;100.00;99772.47;5094913;28;20211;-79
2022/01/17 08:09:04;;;;;;;10.00;7.03;;;;;;;4.02;100.00;99773.31;5094973;28;20206;-79
2022/01/17 08:11:30;;;;;;;10.50;8.03;;;;;;;3.99;100.00;99778.59;5094580;28;20207;-79
2022/01/17 08:13:58;;;;;;;10.93;7.57;;;;;;;4.02;100.00;99768.06;5095652;28;20207;-78
2022/01/17 08:16:24;;;;;;;9.50;6.90;;;;;;;4.04;100.00;99766.28;5109167;28;20211;-78
2022/01/17 08:18:52;;;;;;;8.47;6.97;;;;;;;4.07;100.00;99766.25;5106723;28;20211;-79
2022/01/17 08:21:18;;;;;;;8.70;6.73;;;;;;;4.12;100.00;99753.94;5108040;28;20219;-79
2022/01/17 08:23:45;;;;;;;9.93;7.10;;;;;;;4.11;100.00;99754.84;5108311;28;20245;-79
2022/01/17 08:26:12;;;;;;;11.40;7.60;;;;;;;4.04;100.00;99742.72;5108097;28;20421;-78
2022/01/17 08:28:40;;;;;;;9.97;7.03;;;;;;;3.95;100.00;99750.75;5105515;28;20669;-77
2022/01/17 08:31:08;;;;;;;9.40;6.70;;;;;;;3.91;100.00;99756.91;5097083;28;20676;-79
2022/01/17 08:33:35;;;;;;;7.33;5.93;;;;;;;3.95;100.00;99771.69;5095655;28;20239;-79
2022/01/17 08:36:01;;;;;;;10.23;6.03;;;;;;;4.07;100.00;99757.53;5095657;28;20674;-79
2022/01/17 08:38:29;;;;;;;7.90;6.07;;;;;;;4.10;100.00;99750.47;5095278;28;20211;-79
2022/01/17 08:40:55;;;;;;;7.00;5.77;;;;;;;4.21;100.00;99753.75;5094697;28;20210;-79
2022/01/17 08:43:22;;;;;;;7.87;6.00;;;;;;;4.26;100.00;99754.56;5094306;28;20210;-79
2022/01/17 08:45:49;;;;;;;6.50;5.20;;;;;;;4.38;100.00;99756.94;5092747;28;20642;-79
2022/01/17 08:48:16;;;;;;;8.00;5.60;;;;;;;4.52;100.00;99754.06;5093850;28;20303;-79
2022/01/17 08:50:46;;;;;;;7.20;5.07;;;;;;;4.62;100.00;99756.47;5094142;28;20219;-79
2022/01/17 08:53:13;;;;;;;7.70;5.57;;;;;;;4.74;100.00;99761.47;5093894;28;20240;-79
2022/01/17 08:55:42;;;;;;;7.00;5.40;;;;;;;4.73;100.00;99757.13;5094445;28;20211;-79
2022/01/17 08:58:09;;;;;;;8.07;5.63;;;;;;;4.77;100.00;99752.69;5094150;28;20250;-79
2022/01/17 09:00:37;;;;;;;7.57;5.37;;;;;;;4.87;100.00;99767.28;5093733;28;20215;-79
2022/01/17 09:03:03;;;;;;;6.43;5.10;;;;;;;4.94;100.00;99772.38;5093940;28;20221;-79
2022/01/17 09:05:33;;;;;;;6.53;5.63;;;;;;;5.01;100.00;99781.00;5094030;28;20211;-79
2022/01/17 09:08:00;;;;;;;6.43;4.57;;;;;;;5.10;100.00;99786.03;5093808;28;20214;-80
2022/01/17 09:10:27;;;;;;;6.17;5.03;;;;;;;5.17;100.00;99785.00;5093771;28;20260;-79
2022/01/17 09:12:54;;;;;;;5.70;4.97;;;;;;;5.19;100.00;99791.09;5092473;28;20241;-79
2022/01/17 09:15:21;;;;;;;8.23;5.60;;;;;;;5.25;99.64;99791.78;5091390;28;20215;-79
2022/01/17 09:17:47;;;;;;;7.27;5.77;;;;;;;5.29;99.46;99782.09;5091770;28;20215;-79
2022/01/17 09:20:14;;;;;;;7.00;5.53;;;;;;;5.36;99.45;99767.97;5092654;28;20212;-78
2022/01/17 09:22:42;;;;;;;7.93;5.93;;;;;;;5.40;98.88;99767.88;5092731;28;20217;-77
2022/01/17 09:25:09;;;;;;;8.07;5.83;;;;;;;5.43;99.12;99780.06;5083596;28;20216;-76
2022/01/17 09:27:37;;;;;;;7.97;5.80;;;;;;;5.46;97.15;99791.34;5083523;28;20215;-77
2022/01/17 09:30:07;;;;;;;7.57;6.07;;;;;;;5.38;96.64;99802.88;5092742;28;20209;-79
2022/01/17 09:32:33;;;;;;;8.37;6.40;;;;;;;5.45;96.93;99814.97;5091851;28;20243;-79
2022/01/17 09:35:00;;;;;;;8.13;6.40;;;;;;;5.46;96.54;99822.81;5092677;28;20219;-76
2022/01/17 09:37:26;;;;;;;8.07;6.20;;;;;;;5.39;96.89;99826.47;5092361;28;20221;-75
2022/01/17 09:39:54;;;;;;;9.57;6.63;;;;;;;5.34;97.24;99832.69;5090191;28;20288;-78
2022/01/17 09:42:21;;;;;;;7.23;6.00;;;;;;;5.21;97.36;99837.34;5092084;28;20217;-78
2022/01/17 09:44:47;;;;;;;10.40;6.37;;;;;;;5.28;97.05;99844.19;5091969;28;20214;-78
2022/01/17 09:47:14;;;;;;;10.77;6.50;;;;;;;5.24;97.38;99847.75;5091374;28;20213;-76
2022/01/17 09:49:47;;;;;;;8.17;5.87;;;;;;;5.30;96.93;99831.88;5089111;28;20624;-77
2022/01/17 09:52:33;;;;;;;8.40;6.83;;;;;;;5.30;96.45;99846.75;5092253;28;20235;-77
2022/01/17 09:55:06;;;;;;;9.10;6.70;;;;;;;5.31;97.06;99853.75;5092749;28;20299;-74
2022/01/17 09:57:36;;;;;;;8.97;6.77;;;;;;;5.26;96.67;99848.56;5092662;28;20583;-76
2022/01/17 10:00:04;;;;;;;8.27;6.70;;;;;;;5.10;97.38;99864.66;5092935;28;20261;-74
2022/01/17 10:02:30;;;;;;;8.63;6.37;;;;;;;5.05;99.27;99856.88;5092917;28;20216;-73
2022/01/17 10:04:57;;;;;;;7.23;6.13;;;;;;;5.09;99.64;99857.69;5090883;28;20208;-74
2022/01/17 10:07:25;;;;;;;7.17;5.93;;;;;;;5.23;98.03;99861.75;5089949;28;20211;-77
2022/01/17 10:09:58;;;;;;;7.93;5.93;;;;;;;5.26;98.07;99851.19;5091989;28;20709;-76
2022/01/17 10:12:26;;;;;;;8.97;6.23;;;;;;;5.25;97.89;99849.47;5091828;28;20715;-76
2022/01/17 10:15:00;;;;;;;6.17;5.20;;;;;;;5.28;98.58;99849.41;5092145;28;20213;-73
2022/01/17 10:17:43;;;;;;;7.10;5.27;;;;;;;5.29;98.12;99866.88;5092394;28;20239;-73
2022/01/17 10:20:13;;;;;;;7.37;6.00;;;;;;;5.29;98.47;99845.91;5090817;28;20254;-74
2022/01/17 10:22:49;;;;;;;7.73;5.57;;;;;;;5.35;97.82;99834.41;5092207;28;20306;-75
2022/01/17 10:25:26;;;;;;;8.23;5.40;;;;;;;5.42;97.55;99830.75;5092084;28;20211;-74
2022/01/17 10:28:33;;;;;;;7.17;5.13;;;;;;;5.46;96.97;99832.41;5082549;28;20671;-74
2022/01/17 10:31:22;;;;;;;6.77;5.40;;;;;;;5.40;96.48;99833.44;5089652;28;20210;-75
2022/01/17 10:36:50;;;;;;;7.67;5.77;;;;;;;5.21;97.60;99836.47;5091492;28;20214;-75
2022/01/17 10:39:18;;;;;;;7.83;5.30;;;;;;;5.21;97.87;99858.31;5088767;28;20222;-75
2022/01/17 10:41:44;;;;;;;7.93;6.20;;;;;;;5.13;98.53;99860.19;5089685;28;20207;-75
2022/01/17 10:44:12;;;;;;;6.67;5.23;;;;;;;5.04;98.50;99865.66;5092148;28;20207;-76
2022/01/17 10:46:38;;;;;;;8.23;5.70;;;;;;;5.14;99.30;99876.81;5091841;28;20245;-75
2022/01/17 10:49:06;;;;;;;7.30;5.73;;;;;;;5.13;99.57;99885.56;5091867;28;20242;-75
2022/01/17 10:51:35;;;;;;;7.07;5.67;;;;;;;5.10;98.79;99869.88;5092149;28;20223;-75
2022/01/17 10:54:12;;;;;;;7.27;5.67;;;;;;;5.02;99.47;99867.41;5091666;28;20715;-75
2022/01/17 10:56:49;;;;;;;8.37;6.47;;;;;;;5.03;99.52;99869.16;5091786;28;20676;-79
2022/01/17 10:59:27;;;;;;;7.60;5.90;;;;;;;4.93;100.00;99872.84;5090424;28;20215;-75
2022/01/17 11:01:54;;;;;;;8.07;5.97;;;;;;;4.88;100.00;99874.69;5092057;28;20749;-75
2022/01/17 11:04:34;;;;;;;8.17;6.43;;;;;;;4.76;100.00;99885.38;5091871;28;20212;-76
2022/01/17 11:07:04;;;;;;;8.20;5.90;;;;;;;4.54;100.00;99876.22;5091941;28;20578;-75
2022/01/17 11:09:39;;;;;;;7.83;5.70;;;;;;;4.53;100.00;99879.69;5091622;28;20221;-77
2022/01/17 11:12:09;;;;;;;9.00;6.57;;;;;;;4.48;100.00;99873.69;5091734;28;20212;-75
2022/01/17 11:14:38;;;;;;;7.77;6.07;;;;;;;4.45;100.00;99871.13;5091544;28;20246;-76
2022/01/17 11:17:12;;;;;;;6.63;5.73;;;;;;;4.43;100.00;99864.19;5080372;28;20211;-75
2022/01/17 11:22:24;;;;;;;7.30;6.23;;;;;;;4.42;100.00;99878.16;5091375;28;20725;-76
2022/01/17 11:24:51;;;;;;;8.13;6.63;;;;;;;4.34;100.00;99875.66;5091550;28;20207;-75
2022/01/17 11:27:18;;;;;;;8.77;7.10;;;;;;;4.25;100.00;99894.16;5089882;28;20215;-76
2022/01/17 11:29:48;;;;;;;8.93;6.90;;;;;;;4.21;100.00;99889.00;5091528;28;20210;-76
2022/01/17 11:32:14;;;;;;;9.90;6.83;;;;;;;4.25;100.00;99883.69;5091634;28;20229;-76
2022/01/17 11:34:41;;;;;;;8.83;7.00;;;;;;;4.32;100.00;99893.16;5091729;28;20321;-76
2022/01/17 11:37:08;;;;;;;8.37;7.23;;;;;;;4.39;100.00;99884.31;5091569;28;20214;-76
2022/01/17 11:39:44;;;;;;;8.97;6.83;;;;;;;4.45;100.00;99876.34;5091639;28;20227;-76
2022/01/17 11:42:33;;;;;;;8.73;6.80;;;;;;;4.58;100.00;99872.63;5088093;28;20206;-75
2022/01/17 11:45:04;;;;;;;7.57;6.43;;;;;;;4.67;100.00;99867.25;5091127;28;20237;-76
2022/01/17 11:47:48;;;;;;;8.13;6.50;;;;;;;4.70;100.00;99861.94;5091435;28;20215;-75
2022/01/17 11:50:42;;;;;;;7.90;6.47;;;;;;;4.80;100.00;99855.63;5094096;28;20214;-74